Time;durP1;ratioP1;P1;durP2;ratioP2;P2;SDS_P1;SDS_P2;PMS_P1;PMS_P2;Temp;Humidity;BMP_temperature;BMP_pressure;BME280_temperature;BME280_humidity;BME280_pressure;Samples;Min_cycle;Max_cycle;Signal;HPM_P1;HPM_P2
2023/01/01 00:01:15;;;;;;;22.40;12.75;;;16.40;62.20;;;;;;5134504;28;20047;-74
2023/01/01 00:03:41;;;;;;;26.70;14.65;;;16.50;62.30;;;;;;5134495;28;20020;-73
2023/01/01 00:06:12;;;;;;;22.65;13.85;;;16.50;62.00;;;;;;5133529;28;20055;-73
2023/01/01 00:08:39;;;;;;;27.15;13.57;;;16.50;61.90;;;;;;5134359;28;20051;-74
2023/01/01 00:11:06;;;;;;;20.45;11.77;;;16.50;62.30;;;;;;5133416;28;20091;-74
2023/01/01 00:13:33;;;;;;;22.52;12.73;;;16.50;62.20;;;;;;5134392;28;20023;-74
2023/01/01 00:16:13;;;;;;;20.65;11.77;;;16.50;62.60;;;;;;5134297;28;20028;-75
2023/01/01 00:18:39;;;;;;;19.98;10.00;;;16.50;62.60;;;;;;5134362;28;20060;-74
2023/01/01 00:21:11;;;;;;;20.02;11.25;;;16.50;61.80;;;;;;5134210;28;20079;-74
2023/01/01 00:23:36;;;;;;;18.45;9.75;;;16.50;62.10;;;;;;5134062;28;20039;-73
2023/01/01 00:26:09;;;;;;;18.52;10.15;;;16.50;61.70;;;;;;5133338;28;20028;-74
2023/01/01 00:28:35;;;;;;;13.65;8.00;;;16.60;61.90;;;;;;5134321;28;20102;-73
2023/01/01 00:31:18;;;;;;;16.17;6.72;;;16.60;61.50;;;;;;5134189;28;20024;-73
2023/01/01 00:33:45;;;;;;;15.60;6.30;;;16.50;61.70;;;;;;5133154;28;20083;-74
2023/01/01 00:36:13;;;;;;;10.75;5.00;;;16.60;61.30;;;;;;5134059;28;20024;-74
2023/01/01 00:38:40;;;;;;;8.13;3.88;;;16.60;60.90;;;;;;5133941;28;20031;-74
2023/01/01 00:41:06;;;;;;;14.80;4.25;;;16.60;60.50;;;;;;5133004;28;20061;-74
2023/01/01 00:43:32;;;;;;;13.15;4.05;;;16.70;60.00;;;;;;5134073;28;20466;-74
2023/01/01 00:45:57;;;;;;;6.07;2.78;;;16.70;60.00;;;;;;5133935;28;20055;-73
2023/01/01 00:48:23;;;;;;;7.93;2.97;;;16.70;60.00;;;;;;5133852;28;20028;-74
2023/01/01 00:50:52;;;;;;;6.65;2.45;;;16.70;59.50;;;;;;5115813;28;20032;-74
2023/01/01 00:53:19;;;;;;;5.60;2.28;;;16.70;59.30;;;;;;5136427;28;20028;-74
2023/01/01 00:55:47;;;;;;;6.78;2.55;;;16.70;58.90;;;;;;5120083;28;20069;-73
2023/01/01 00:58:13;;;;;;;9.10;3.58;;;16.70;59.50;;;;;;5138030;27;20020;-73
2023/01/01 01:00:39;;;;;;;7.28;2.85;;;16.70;59.80;;;;;;5138037;28;20024;-74
2023/01/01 01:03:04;;;;;;;9.85;3.38;;;16.60;60.00;;;;;;5137986;28;20023;-73
2023/01/01 01:05:31;;;;;;;6.18;2.75;;;16.60;60.40;;;;;;5120020;28;20031;-73
2023/01/01 01:07:57;;;;;;;7.50;2.97;;;16.60;60.20;;;;;;5136861;28;20028;-73
2023/01/01 01:10:24;;;;;;;6.10;2.35;;;16.50;60.20;;;;;;5137884;28;20027;-73
2023/01/01 01:12:53;;;;;;;6.55;2.38;;;16.50;59.80;;;;;;5137791;28;20024;-73
2023/01/01 01:15:19;;;;;;;8.43;2.25;;;16.50;60.00;;;;;;5136715;28;20049;-74
2023/01/01 01:17:45;;;;;;;4.40;2.38;;;16.50;59.80;;;;;;5137609;28;20019;-74
2023/01/01 01:20:11;;;;;;;7.28;2.45;;;16.60;58.90;;;;;;5119765;28;20024;-74
2023/01/01 01:22:37;;;;;;;8.60;1.90;;;16.60;59.30;;;;;;5136431;28;20040;-74
2023/01/01 01:25:04;;;;;;;4.05;1.98;;;16.60;59.40;;;;;;5137627;28;20024;-74
2023/01/01 01:27:30;;;;;;;7.60;2.30;;;16.60;58.90;;;;;;5137467;28;20024;-74
2023/01/01 01:29:56;;;;;;;6.75;2.10;;;16.70;59.20;;;;;;5136467;28;20498;-73
2023/01/01 01:32:22;;;;;;;4.78;2.20;;;16.70;59.20;;;;;;5137395;28;20038;-73
2023/01/01 01:34:47;;;;;;;6.10;1.90;;;16.60;59.60;;;;;;5137424;28;20031;-74
2023/01/01 01:37:13;;;;;;;4.18;1.83;;;16.60;59.70;;;;;;5136384;28;20031;-73
2023/01/01 01:39:38;;;;;;;6.55;1.85;;;16.60;59.50;;;;;;5137308;28;20498;-73
2023/01/01 01:42:04;;;;;;;5.47;2.05;;;16.50;60.00;;;;;;5137261;28;20035;-73
2023/01/01 01:44:45;;;;;;;8.98;2.53;;;16.50;60.40;;;;;;5119158;28;20024;-74
2023/01/01 01:47:50;;;;;;;8.35;2.15;;;16.50;60.60;;;;;;5136197;28;20028;-74
2023/01/01 01:50:32;;;;;;;3.33;1.33;;;16.50;59.70;;;;;;5133220;28;20042;-74
2023/01/01 01:53:00;;;;;;;;;;;16.40;59.00;;;;;;5137513;28;20093;-74
2023/01/01 01:55:29;;;;;;;6.05;1.90;;;16.30;59.10;;;;;;5135993;28;19981;-74
2023/01/01 01:57:55;;;;;;;8.10;2.20;;;16.30;59.50;;;;;;5136918;28;20020;-74
2023/01/01 02:00:21;;;;;;;7.65;2.05;;;16.30;59.50;;;;;;5137088;28;20031;-73
2023/01/01 02:02:58;;;;;;;6.97;1.85;;;16.30;59.50;;;;;;5135861;28;20032;-74
2023/01/01 02:05:24;;;;;;;4.47;1.60;;;16.30;59.10;;;;;;5135931;28;20020;-74
2023/01/01 02:07:51;;;;;;;8.18;1.63;;;16.30;59.50;;;;;;5135770;28;20490;-73
2023/01/01 02:10:18;;;;;;;5.93;1.48;;;16.20;59.30;;;;;;5135735;28;20057;-73
2023/01/01 02:12:43;;;;;;;6.55;2.10;;;16.20;59.70;;;;;;5136661;28;20027;-74
2023/01/01 02:15:09;;;;;;;5.28;1.25;;;16.20;59.60;;;;;;5101759;28;20119;-73
2023/01/01 02:17:39;;;;;;;6.03;1.50;;;16.20;59.60;;;;;;5136703;28;20088;-74
2023/01/01 02:20:15;;;;;;;4.18;1.50;;;16.20;59.90;;;;;;5136580;28;20026;-73
2023/01/01 02:23:18;;;;;;;6.32;1.67;;;16.20;60.00;;;;;;5136433;28;20051;-74
2023/01/01 02:25:56;;;;;;;3.25;1.23;;;16.10;59.50;;;;;;5135431;28;20030;-74
2023/01/01 02:28:41;;;;;;;5.65;2.00;;;16.10;60.10;;;;;;5135434;28;20047;-74
2023/01/01 02:31:12;;;;;;;3.88;1.58;;;16.10;60.00;;;;;;5135297;28;20028;-74
2023/01/01 02:33:40;;;;;;;3.67;1.27;;;16.00;60.10;;;;;;5136355;28;20020;-74
2023/01/01 02:36:08;;;;;;;2.13;1.15;;;16.00;60.10;;;;;;5136241;28;20073;-73
2023/01/01 02:38:36;;;;;;;7.03;1.95;;;16.00;60.20;;;;;;5135229;28;20039;-73
2023/01/01 02:41:06;;;;;;;5.30;1.90;;;16.00;60.70;;;;;;5135066;28;20083;-74
2023/01/01 02:43:32;;;;;;;4.32;1.67;;;16.00;60.40;;;;;;5136142;28;20020;-73
2023/01/01 02:45:58;;;;;;;4.35;1.60;;;15.90;60.20;;;;;;5118047;28;20030;-74
2023/01/01 02:48:43;;;;;;;6.28;1.60;;;15.90;60.20;;;;;;5118006;28;20038;-73
2023/01/01 02:51:42;;;;;;;4.22;1.60;;;15.90;60.90;;;;;;5135086;28;20039;-74
2023/01/01 02:54:17;;;;;;;3.20;1.50;;;15.80;61.10;;;;;;5135878;28;20390;-74
2023/01/01 02:57:07;;;;;;;8.02;1.50;;;15.80;61.20;;;;;;5136004;28;20051;-74
2023/01/01 03:02:41;;;;;;;6.53;1.60;;;15.70;60.50;;;;;;5135967;28;20031;-74
2023/01/01 03:05:22;;;;;;;3.58;1.38;;;15.70;61.10;;;;;;5135677;28;20034;-73
2023/01/01 03:08:14;;;;;;;6.13;1.55;;;15.70;60.70;;;;;;5134590;28;20039;-74
2023/01/01 03:11:06;;;;;;;5.18;1.23;;;15.70;60.60;;;;;;5135598;28;20055;-74
2023/01/01 03:13:48;;;;;;;3.78;1.25;;;15.70;61.00;;;;;;5134708;28;20046;-73
2023/01/01 03:16:37;;;;;;;3.92;1.20;;;15.80;60.90;;;;;;5135091;28;20019;-74
2023/01/01 03:19:22;;;;;;;5.50;1.35;;;15.80;60.80;;;;;;5134409;28;20024;-74
2023/01/01 03:21:56;;;;;;;2.08;1.10;;;15.80;60.30;;;;;;5134391;28;20043;-74
2023/01/01 03:24:34;;;;;;;4.95;1.15;;;15.80;61.10;;;;;;5135159;28;20109;-74
2023/01/01 03:27:12;;;;;;;4.05;1.20;;;15.80;61.10;;;;;;5134292;28;20034;-74
2023/01/01 03:29:40;;;;;;;3.38;1.30;;;15.80;61.50;;;;;;5135091;28;20015;-73
2023/01/01 03:32:13;;;;;;;5.25;1.80;;;15.80;61.40;;;;;;5134999;28;20011;-74
2023/01/01 03:34:46;;;;;;;1.73;1.00;;;15.80;61.30;;;;;;5135167;28;20012;-74
2023/01/01 03:37:18;;;;;;;1.17;0.60;;;15.80;60.90;;;;;;5134964;28;20102;-73
2023/01/01 03:39:54;;;;;;;4.63;1.25;;;15.80;61.20;;;;;;5135024;28;20020;-74
2023/01/01 03:42:35;;;;;;;2.28;1.15;;;15.80;61.60;;;;;;5134997;28;20016;-73
2023/01/01 03:45:18;;;;;;;4.35;1.30;;;15.80;61.50;;;;;;5134941;28;20027;-74
2023/01/01 03:47:45;;;;;;;4.22;1.13;;;15.80;61.90;;;;;;5133872;28;20047;-73
2023/01/01 03:50:11;;;;;;;3.55;1.48;;;15.80;61.90;;;;;;5133759;28;20035;-74
2023/01/01 03:53:02;;;;;;;6.63;1.10;;;15.80;61.80;;;;;;5133891;28;20046;-74
2023/01/01 03:55:34;;;;;;;6.43;1.45;;;15.80;61.90;;;;;;5134763;28;20019;-73
2023/01/01 03:58:25;;;;;;;4.85;1.20;;;15.80;62.20;;;;;;5133508;28;20055;-74
2023/01/01 04:01:11;;;;;;;7.40;1.15;;;15.80;62.20;;;;;;5134631;28;20020;-74
2023/01/01 04:03:38;;;;;;;2.65;1.05;;;15.80;62.50;;;;;;5134603;28;20058;-73
2023/01/01 04:06:04;;;;;;;2.75;1.23;;;15.70;62.00;;;;;;5133484;28;20027;-73
2023/01/01 04:08:33;;;;;;;5.95;0.90;;;15.70;62.60;;;;;;5133395;28;20095;-74
2023/01/01 04:12:00;;;;;;;3.70;1.45;;;15.70;62.50;;;;;;5134406;28;20028;-74
2023/01/01 04:13:46;;;;;;;4.75;1.15;;;15.70;62.50;;;;;;5134278;28;20031;-73
2023/01/01 04:16:12;;;;;;;3.00;1.10;;;15.70;62.70;;;;;;5133438;28;20031;-74
2023/01/01 04:18:38;;;;;;;7.40;1.48;;;15.70;62.90;;;;;;5133207;28;20032;-74
2023/01/01 04:21:03;;;;;;;6.68;1.45;;;15.70;62.60;;;;;;5133375;28;20023;-74
2023/01/01 04:23:29;;;;;;;4.28;0.95;;;15.70;62.70;;;;;;5133075;28;20054;-73
2023/01/01 04:25:54;;;;;;;1.40;0.73;;;15.70;62.50;;;;;;5134171;28;20031;-73
2023/01/01 04:28:20;;;;;;;5.93;1.00;;;15.70;63.00;;;;;;5132380;28;20028;-73
2023/01/01 04:30:46;;;;;;;2.03;0.95;;;15.70;63.40;;;;;;5134116;28;20027;-74
2023/01/01 04:33:11;;;;;;;3.47;1.05;;;15.70;63.30;;;;;;5133164;28;20053;-73
2023/01/01 04:35:37;;;;;;;2.97;1.45;;;15.70;63.60;;;;;;5133126;28;20452;-73
2023/01/01 04:38:03;;;;;;;3.70;1.15;;;15.70;63.70;;;;;;5133011;28;20035;-74
2023/01/01 04:40:28;;;;;;;6.97;1.50;;;15.70;63.60;;;;;;5133996;28;20197;-73
2023/01/01 04:42:54;;;;;;;3.75;1.10;;;15.70;64.00;;;;;;5133007;28;20474;-73
2023/01/01 04:45:19;;;;;;;6.68;1.40;;;15.60;64.00;;;;;;5133092;28;20053;-74
2023/01/01 04:47:45;;;;;;;3.20;0.90;;;15.60;64.00;;;;;;5133942;28;20039;-73
2023/01/01 04:50:11;;;;;;;4.70;1.23;;;15.60;64.50;;;;;;5133958;28;20024;-74
2023/01/01 04:52:36;;;;;;;4.35;0.88;;;15.60;64.30;;;;;;5133900;28;20059;-73
2023/01/01 04:55:02;;;;;;;5.30;1.50;;;15.60;64.30;;;;;;5115997;28;20039;-74
2023/01/01 04:57:29;;;;;;;4.63;1.52;;;15.60;64.50;;;;;;5132776;28;20028;-74
2023/01/01 04:59:55;;;;;;;3.97;1.30;;;15.60;64.50;;;;;;5132833;28;20020;-74
2023/01/01 05:02:20;;;;;;;4.80;1.33;;;15.60;64.90;;;;;;5132826;28;20030;-73
2023/01/01 05:04:46;;;;;;;4.90;1.33;;;15.60;64.90;;;;;;5132832;28;20083;-73
2023/01/01 05:07:11;;;;;;;2.65;1.17;;;15.60;64.90;;;;;;5115787;28;20035;-74
2023/01/01 05:09:37;;;;;;;4.70;1.33;;;15.60;65.30;;;;;;5132790;28;20118;-74
2023/01/01 05:12:03;;;;;;;4.28;1.20;;;15.50;65.20;;;;;;5133699;28;20043;-73
2023/01/01 05:14:28;;;;;;;4.85;1.55;;;15.50;65.20;;;;;;5132804;28;20564;-74
2023/01/01 05:16:54;;;;;;;3.13;0.90;;;15.50;65.60;;;;;;5132750;28;20034;-74
2023/01/01 05:19:20;;;;;;;2.45;1.00;;;15.50;65.80;;;;;;5133662;28;20081;-73
2023/01/01 05:21:45;;;;;;;6.05;1.20;;;15.50;65.90;;;;;;5133640;28;20023;-73
2023/01/01 05:24:12;;;;;;;3.58;1.50;;;15.50;66.20;;;;;;5133694;28;20440;-74
2023/01/01 05:26:40;;;;;;;4.63;1.23;;;15.50;66.20;;;;;;5132582;28;20043;-73
2023/01/01 05:29:06;;;;;;;4.82;1.63;;;15.50;66.20;;;;;;5133591;28;20034;-73
2023/01/01 05:31:34;;;;;;;3.28;1.08;;;15.50;66.60;;;;;;5132522;28;20020;-74
2023/01/01 05:34:00;;;;;;;7.00;1.30;;;15.50;66.50;;;;;;5133567;28;20039;-73
2023/01/01 05:36:37;;;;;;;5.20;1.58;;;15.50;66.60;;;;;;5133520;28;20024;-73
2023/01/01 05:39:08;;;;;;;6.07;1.17;;;15.50;67.00;;;;;;5135392;28;20031;-73
2023/01/01 05:41:37;;;;;;;6.45;2.05;;;15.40;66.70;;;;;;5137386;28;20020;-73
2023/01/01 05:44:07;;;;;;;7.78;1.88;;;15.40;67.20;;;;;;5136364;28;20031;-74
2023/01/01 05:46:33;;;;;;;3.85;0.90;;;15.40;67.20;;;;;;5119375;28;20062;-73
2023/01/01 05:48:59;;;;;;;2.55;0.93;;;15.40;67.20;;;;;;5137165;28;20027;-74
2023/01/01 05:51:27;;;;;;;4.00;1.60;;;15.40;67.00;;;;;;5136085;28;20031;-73
2023/01/01 05:53:53;;;;;;;3.42;1.13;;;15.40;68.40;;;;;;5137085;28;20026;-74
2023/01/01 05:56:19;;;;;;;5.78;1.55;;;15.40;67.70;;;;;;5137069;28;20054;-74
2023/01/01 05:58:45;;;;;;;8.18;1.73;;;15.30;67.60;;;;;;5136056;28;20023;-74
2023/01/01 06:01:21;;;;;;;5.35;1.13;;;15.40;68.10;;;;;;5135949;28;20024;-74
2023/01/01 06:03:49;;;;;;;5.32;1.08;;;15.40;67.90;;;;;;5136994;28;20016;-74
2023/01/01 06:06:18;;;;;;;4.60;1.10;;;15.30;67.70;;;;;;5136866;28;20024;-74
2023/01/01 06:08:56;;;;;;;2.80;1.27;;;15.30;68.00;;;;;;5136786;28;20027;-74
2023/01/01 06:11:22;;;;;;;5.47;1.83;;;15.30;68.20;;;;;;5136728;28;20024;-73
2023/01/01 06:13:51;;;;;;;4.50;1.50;;;15.30;68.50;;;;;;5136731;28;20020;-74
2023/01/01 06:16:17;;;;;;;3.13;1.20;;;15.30;68.70;;;;;;5136669;28;20019;-73
2023/01/01 06:18:43;;;;;;;5.00;1.38;;;15.30;68.80;;;;;;5135497;28;20032;-74
2023/01/01 06:21:12;;;;;;;5.28;1.70;;;15.30;68.90;;;;;;5135600;28;20019;-73
2023/01/01 06:23:38;;;;;;;6.38;1.65;;;15.20;69.20;;;;;;5136361;28;20099;-74
2023/01/01 06:26:13;;;;;;;4.93;1.45;;;15.20;69.20;;;;;;5136454;28;20028;-73
2023/01/01 06:28:40;;;;;;;6.93;1.60;;;15.30;69.20;;;;;;5135395;28;20035;-74
2023/01/01 06:31:09;;;;;;;4.22;1.50;;;15.30;69.10;;;;;;5136393;28;20031;-74
2023/01/01 06:33:35;;;;;;;4.22;1.67;;;15.20;69.20;;;;;;5136352;28;20027;-74
2023/01/01 06:36:03;;;;;;;7.38;1.67;;;15.20;69.60;;;;;;5136280;28;20028;-74
2023/01/01 06:38:34;;;;;;;3.20;1.20;;;15.20;69.60;;;;;;5135168;28;20091;-74
2023/01/01 06:41:02;;;;;;;2.28;1.25;;;15.20;69.70;;;;;;5135241;28;20042;-74
2023/01/01 06:43:30;;;;;;;4.38;1.50;;;15.20;69.50;;;;;;5135131;28;20020;-74
2023/01/01 06:46:38;;;;;;;4.45;1.42;;;15.20;69.70;;;;;;5136109;27;20053;-74
2023/01/01 06:49:08;;;;;;;5.07;1.45;;;15.30;70.00;;;;;;5053440;28;20056;-74
2023/01/01 06:51:39;;;;;;;10.68;2.53;;;15.30;70.60;;;;;;5120253;28;20028;-75
2023/01/01 06:54:06;;;;;;;3.78;1.42;;;15.20;73.00;;;;;;5135940;28;20016;-74
2023/01/01 06:56:32;;;;;;;5.85;1.55;;;15.10;75.40;;;;;;5135889;28;20020;-75
2023/01/01 06:58:58;;;;;;;5.28;1.65;;;14.90;77.20;;;;;;5134959;28;20032;-74
2023/01/01 07:01:27;;;;;;;4.55;1.45;;;14.70;77.60;;;;;;5135787;28;20026;-74
2023/01/01 07:03:58;;;;;;;3.75;1.25;;;14.50;79.10;;;;;;5134689;28;20039;-74
2023/01/01 07:06:24;;;;;;;4.93;1.35;;;14.20;80.20;;;;;;5135698;28;20084;-74
2023/01/01 07:08:50;;;;;;;3.00;1.40;;;14.10;81.50;;;;;;5134551;28;20024;-74
2023/01/01 07:11:16;;;;;;;2.38;1.40;;;14.00;81.80;;;;;;5135613;28;20031;-74
2023/01/01 07:13:42;;;;;;;5.18;1.40;;;13.90;82.50;;;;;;5135572;28;20020;-74
2023/01/01 07:16:08;;;;;;;6.97;2.10;;;13.80;83.20;;;;;;5135442;28;20024;-74
2023/01/01 07:18:33;;;;;;;8.18;2.10;;;13.80;82.90;;;;;;5134385;28;20028;-74
2023/01/01 07:21:04;;;;;;;5.05;1.95;;;13.80;82.80;;;;;;5135343;28;20103;-74
2023/01/01 07:23:31;;;;;;;3.63;2.00;;;13.80;83.40;;;;;;5135163;28;20043;-74
2023/01/01 07:25:57;;;;;;;4.63;2.20;;;13.80;83.20;;;;;;5135289;28;20026;-74
2023/01/01 07:28:24;;;;;;;3.55;2.25;;;13.80;83.80;;;;;;5135292;28;20024;-74
2023/01/01 07:30:51;;;;;;;7.72;2.50;;;13.70;84.90;;;;;;5135200;28;20049;-74
2023/01/01 07:33:20;;;;;;;5.93;2.58;;;13.60;85.60;;;;;;5135149;28;20023;-73
2023/01/01 07:35:46;;;;;;;9.00;2.78;;;13.50;86.20;;;;;;5134126;28;20019;-74
2023/01/01 07:38:13;;;;;;;4.78;3.03;;;13.50;86.30;;;;;;5134054;28;20032;-73
2023/01/01 07:40:39;;;;;;;7.72;3.00;;;13.50;86.20;;;;;;5135040;28;20016;-73
2023/01/01 07:43:05;;;;;;;3.60;2.75;;;13.50;86.20;;;;;;5117073;28;20023;-74
2023/01/01 07:45:31;;;;;;;9.32;3.38;;;13.50;87.00;;;;;;5134942;28;20071;-73
2023/01/01 07:47:58;;;;;;;9.30;3.42;;;13.40;87.30;;;;;;5134122;28;20049;-74
2023/01/01 07:50:26;;;;;;;6.30;3.60;;;13.40;87.80;;;;;;5134692;28;20047;-74
2023/01/01 07:52:52;;;;;;;5.72;2.95;;;13.30;88.10;;;;;;5134773;27;20027;-74
2023/01/01 07:55:19;;;;;;;6.78;2.70;;;13.30;88.40;;;;;;5133865;28;20027;-74
2023/01/01 07:57:45;;;;;;;8.32;2.92;;;13.30;88.80;;;;;;5133766;28;20028;-73
2023/01/01 08:00:13;;;;;;;4.85;1.95;;;13.20;88.60;;;;;;5133694;28;20075;-74
2023/01/01 08:02:39;;;;;;;5.72;1.80;;;13.20;88.20;;;;;;5134469;28;20020;-74
2023/01/01 08:05:05;;;;;;;8.07;2.50;;;13.20;87.90;;;;;;5134537;28;20030;-74
2023/01/01 08:07:31;;;;;;;6.13;2.15;;;13.10;87.90;;;;;;5116797;28;20049;-74
2023/01/01 08:09:57;;;;;;;5.90;2.00;;;13.20;87.40;;;;;;5133497;28;20036;-74
2023/01/01 08:12:23;;;;;;;6.45;1.90;;;13.20;87.80;;;;;;5134403;28;20028;-74
2023/01/01 08:14:49;;;;;;;6.60;1.90;;;13.20;87.90;;;;;;5133479;28;20032;-74
2023/01/01 08:17:14;;;;;;;4.85;1.92;;;13.20;87.20;;;;;;5133250;28;20032;-74
2023/01/01 08:19:40;;;;;;;4.35;1.83;;;13.20;87.70;;;;;;5134444;28;20035;-75
2023/01/01 08:22:06;;;;;;;8.93;1.77;;;13.20;87.60;;;;;;5132999;28;20024;-74
2023/01/01 08:24:31;;;;;;;2.38;1.30;;;13.20;87.30;;;;;;5133259;28;20023;-73
2023/01/01 08:26:57;;;;;;;4.60;1.48;;;13.30;87.20;;;;;;5134346;28;20024;-74
2023/01/01 08:29:23;;;;;;;3.90;1.27;;;13.30;87.10;;;;;;5133141;28;20032;-74
2023/01/01 08:31:48;;;;;;;5.88;1.33;;;13.20;87.30;;;;;;5133194;28;20019;-73
2023/01/01 08:34:14;;;;;;;8.00;1.42;;;13.30;87.70;;;;;;5133072;28;20028;-74
2023/01/01 08:36:39;;;;;;;3.38;1.52;;;13.20;88.40;;;;;;5134078;28;20030;-74
2023/01/01 08:39:06;;;;;;;2.78;0.90;;;13.10;88.60;;;;;;5132991;28;20122;-73
2023/01/01 08:41:32;;;;;;;4.03;1.13;;;13.00;89.30;;;;;;5134056;28;20016;-73
2023/01/01 08:43:57;;;;;;;3.55;1.15;;;12.90;90.00;;;;;;5133000;28;20023;-73
2023/01/01 08:46:23;;;;;;;9.30;1.30;;;12.80;90.20;;;;;;5132954;28;20466;-73
2023/01/01 08:48:49;;;;;;;9.60;1.17;;;12.70;90.30;;;;;;5133938;28;20042;-73
2023/01/01 08:51:14;;;;;;;3.45;1.30;;;12.70;90.70;;;;;;5132970;28;20035;-73
2023/01/01 08:53:40;;;;;;;3.88;0.90;;;12.70;90.70;;;;;;5115905;28;20055;-73
2023/01/01 08:56:07;;;;;;;4.30;1.08;;;12.70;90.90;;;;;;5132879;28;20028;-73
2023/01/01 08:58:35;;;;;;;4.53;1.60;;;12.70;91.00;;;;;;5133842;28;20045;-73
2023/01/01 09:01:01;;;;;;;7.45;2.42;;;12.70;91.10;;;;;;5132911;28;20020;-74
2023/01/01 09:03:27;;;;;;;14.73;5.18;;;12.70;91.00;;;;;;5133843;28;20042;-73
2023/01/01 09:05:53;;;;;;;3.10;1.60;;;12.60;91.40;;;;;;5133806;28;20012;-74
2023/01/01 09:08:19;;;;;;;4.55;2.00;;;12.60;91.50;;;;;;5132756;28;20020;-74
2023/01/01 09:10:46;;;;;;;4.22;1.42;;;12.60;91.80;;;;;;5133778;28;20055;-73
2023/01/01 09:13:14;;;;;;;6.65;4.10;;;12.60;91.90;;;;;;5133256;28;20031;-73
2023/01/01 09:15:41;;;;;;;8.65;4.55;;;12.60;91.70;;;;;;5137884;28;20032;-73
2023/01/01 09:18:08;;;;;;;3.60;1.15;;;12.70;91.60;;;;;;5137750;27;20023;-74
2023/01/01 09:20:34;;;;;;;3.00;1.80;;;12.70;91.80;;;;;;5137781;28;20072;-74
2023/01/01 09:23:00;;;;;;;4.13;1.25;;;12.70;91.90;;;;;;5136596;28;20099;-73
2023/01/01 09:25:25;;;;;;;6.10;1.65;;;12.60;92.00;;;;;;5137690;28;20030;-73
2023/01/01 09:28:01;;;;;;;3.13;0.95;;;12.60;92.20;;;;;;5137638;28;20035;-74
2023/01/01 09:30:27;;;;;;;3.85;1.30;;;12.70;92.30;;;;;;5137749;28;20092;-74
2023/01/01 09:32:53;;;;;;;4.68;1.50;;;12.60;92.70;;;;;;5137515;28;20057;-74
2023/01/01 09:35:19;;;;;;;5.70;1.58;;;12.60;92.50;;;;;;5119370;28;20032;-75
2023/01/01 09:37:44;;;;;;;7.10;1.92;;;12.60;92.60;;;;;;5136323;28;20031;-74
2023/01/01 09:40:51;;;;;;;7.93;1.83;;;12.70;92.70;;;;;;5136428;28;20020;-74
2023/01/01 09:43:22;;;;;;;6.38;1.75;;;12.70;92.60;;;;;;5118784;28;20024;-75
2023/01/01 09:45:54;;;;;;;4.73;1.80;;;12.70;92.50;;;;;;5137288;28;20051;-75
2023/01/01 09:48:22;;;;;;;4.55;1.98;;;12.80;92.50;;;;;;5136254;28;20059;-75
2023/01/01 09:50:48;;;;;;;4.30;1.60;;;12.80;92.40;;;;;;5137151;28;20031;-74
2023/01/01 09:53:24;;;;;;;6.53;2.08;;;12.90;92.30;;;;;;5137094;28;20023;-75
2023/01/01 09:55:55;;;;;;;9.45;2.20;;;13.00;92.20;;;;;;5137132;28;20095;-74
2023/01/01 09:58:25;;;;;;;5.88;2.20;;;13.00;92.10;;;;;;5135838;28;20113;-74
2023/01/01 10:00:53;;;;;;;11.95;5.43;;;13.00;92.00;;;;;;5136942;28;20032;-75
2023/01/01 10:03:40;;;;;;;4.78;2.30;;;13.00;92.00;;;;;;5135940;28;20023;-74
2023/01/01 10:06:14;;;;;;;8.38;2.58;;;13.00;92.10;;;;;;5135852;28;20024;-74
2023/01/01 10:09:22;;;;;;;6.53;2.45;;;13.00;92.30;;;;;;5135728;28;20058;-74
2023/01/01 10:12:03;;;;;;;9.50;2.45;;;12.90;92.40;;;;;;5136748;28;20086;-74
2023/01/01 10:14:44;;;;;;;7.47;2.47;;;12.90;92.40;;;;;;5135778;28;20024;-75
2023/01/01 10:17:30;;;;;;;8.52;3.20;;;12.90;92.20;;;;;;5135558;28;20049;-75
2023/01/01 10:20:01;;;;;;;6.97;2.72;;;12.90;92.20;;;;;;5135546;28;20059;-75
2023/01/01 10:22:37;;;;;;;8.80;2.97;;;12.90;92.20;;;;;;5135366;28;20044;-74
2023/01/01 10:25:20;;;;;;;6.10;2.80;;;12.80;92.20;;;;;;5135254;28;20023;-75
2023/01/01 10:28:05;;;;;;;6.75;2.55;;;12.90;92.30;;;;;;5135417;28;20015;-74
2023/01/01 10:30:31;;;;;;;6.10;2.83;;;12.80;92.40;;;;;;5135407;28;20098;-74
2023/01/01 10:32:58;;;;;;;10.38;3.20;;;12.80;92.70;;;;;;5118324;28;20049;-74
2023/01/01 10:35:38;;;;;;;11.55;3.03;;;12.70;92.70;;;;;;5136323;28;20020;-74
2023/01/01 10:38:04;;;;;;;7.20;3.15;;;12.70;92.80;;;;;;5135186;28;20027;-74
2023/01/01 10:40:30;;;;;;;7.45;3.47;;;12.70;92.80;;;;;;5135215;28;20020;-74
2023/01/01 10:42:58;;;;;;;9.57;2.80;;;12.70;92.80;;;;;;5136174;28;20043;-74
2023/01/01 10:45:30;;;;;;;5.35;2.95;;;12.80;92.90;;;;;;5136089;28;20020;-74
2023/01/01 10:48:29;;;;;;;6.20;3.20;;;12.80;93.30;;;;;;5135069;28;20027;-74
2023/01/01 10:51:00;;;;;;;7.53;3.25;;;12.90;92.90;;;;;;5091444;28;20095;-74
2023/01/01 10:53:36;;;;;;;9.45;3.05;;;12.90;92.80;;;;;;5136154;27;20028;-74
2023/01/01 10:56:13;;;;;;;6.80;2.60;;;12.90;92.60;;;;;;5136110;27;20023;-74
2023/01/01 10:58:42;;;;;;;7.25;2.90;;;13.00;92.50;;;;;;5135829;28;20053;-74
2023/01/01 11:01:23;;;;;;;11.18;2.95;;;13.00;92.30;;;;;;5135824;28;20023;-74
2023/01/01 11:03:54;;;;;;;4.68;2.30;;;13.00;92.20;;;;;;5134759;28;20024;-74
2023/01/01 11:06:30;;;;;;;6.18;2.50;;;13.10;91.70;;;;;;5135678;28;20083;-74
2023/01/01 11:08:58;;;;;;;8.15;2.90;;;13.10;91.70;;;;;;5135617;28;20042;-74
2023/01/01 11:11:40;;;;;;;6.80;3.05;;;13.20;91.40;;;;;;5134595;28;20030;-74
2023/01/01 11:14:21;;;;;;;4.55;2.05;;;13.30;91.10;;;;;;5135642;28;20032;-74
2023/01/01 11:16:48;;;;;;;8.63;3.15;;;13.40;90.90;;;;;;5134542;28;20023;-73
2023/01/01 11:19:40;;;;;;;9.25;2.53;;;13.40;90.60;;;;;;5135361;28;20032;-74
2023/01/01 11:22:12;;;;;;;6.35;2.65;;;13.50;90.50;;;;;;5131823;28;20035;-74
2023/01/01 11:24:38;;;;;;;9.35;2.58;;;13.50;90.10;;;;;;5134391;28;20049;-74
2023/01/01 11:27:24;;;;;;;6.38;2.00;;;13.60;90.20;;;;;;5117218;28;20028;-74
2023/01/01 11:29:52;;;;;;;8.25;2.35;;;13.60;89.60;;;;;;5133758;28;20126;-74
2023/01/01 11:32:28;;;;;;;5.85;2.10;;;13.60;89.80;;;;;;5134203;28;20019;-75
2023/01/01 11:35:01;;;;;;;6.13;2.05;;;13.60;89.30;;;;;;5135193;28;20024;-74
2023/01/01 11:37:39;;;;;;;6.50;1.90;;;13.60;89.80;;;;;;5134524;28;20020;-74
2023/01/01 11:40:17;;;;;;;6.80;2.03;;;13.70;89.30;;;;;;5135082;28;20019;-74
2023/01/01 11:42:47;;;;;;;7.53;2.85;;;13.70;88.80;;;;;;5134040;28;20024;-74
2023/01/01 11:45:25;;;;;;;8.27;2.28;;;13.70;89.30;;;;;;5134971;28;20047;-74
2023/01/01 11:48:00;;;;;;;5.05;1.80;;;13.80;88.90;;;;;;5133951;28;20096;-74
2023/01/01 11:50:33;;;;;;;8.80;2.20;;;13.80;88.70;;;;;;5134999;28;20032;-74
2023/01/01 11:53:23;;;;;;;7.78;2.60;;;13.80;88.50;;;;;;5133766;28;20023;-74
2023/01/01 11:56:01;;;;;;;5.55;2.22;;;13.80;88.10;;;;;;5134943;28;20106;-74
2023/01/01 11:58:35;;;;;;;6.75;1.70;;;13.80;88.40;;;;;;5134591;28;20035;-74
2023/01/01 12:01:40;;;;;;;6.05;2.03;;;13.80;87.80;;;;;;5133587;28;20028;-74
2023/01/01 12:04:09;;;;;;;4.50;2.05;;;13.90;87.50;;;;;;5103359;28;20036;-74
2023/01/01 12:06:47;;;;;;;8.43;2.10;;;13.90;87.30;;;;;;5133472;28;20041;-74
2023/01/01 12:09:14;;;;;;;8.68;2.28;;;13.90;86.70;;;;;;5133479;28;20058;-75
2023/01/01 12:11:49;;;;;;;5.15;1.70;;;13.90;87.00;;;;;;5133394;28;20031;-74
2023/01/01 12:14:21;;;;;;;5.50;1.80;;;13.90;86.80;;;;;;5134220;28;20026;-73
2023/01/01 12:16:51;;;;;;;10.93;1.80;;;13.90;86.30;;;;;;5133370;28;20091;-74
2023/01/01 12:19:29;;;;;;;5.13;1.83;;;13.90;86.10;;;;;;5133214;28;20024;-74
2023/01/01 12:21:58;;;;;;;2.97;1.42;;;14.00;86.00;;;;;;5133337;28;20020;-74
2023/01/01 12:24:31;;;;;;;8.23;1.88;;;14.10;85.30;;;;;;5133231;28;20047;-74
2023/01/01 12:27:03;;;;;;;;;;;14.10;84.50;;;;;;5134737;28;20019;-74
2023/01/01 12:30:02;;;;;;;6.15;1.30;;;14.20;83.10;;;;;;5133210;28;19903;-74
2023/01/01 12:33:04;;;;;;;4.75;1.33;;;14.20;83.10;;;;;;5134167;28;20034;-74
2023/01/01 12:35:47;;;;;;;8.25;1.83;;;14.40;82.20;;;;;;5133236;28;20019;-74
2023/01/01 12:38:25;;;;;;;8.85;1.27;;;14.50;82.40;;;;;;5134022;28;20049;-75
2023/01/01 12:40:59;;;;;;;11.65;2.15;;;14.80;81.40;;;;;;5133062;28;20047;-74
2023/01/01 12:43:39;;;;;;;8.55;1.90;;;15.00;79.70;;;;;;5132944;28;20118;-74
2023/01/01 12:46:29;;;;;;;6.13;1.90;;;15.30;79.00;;;;;;5132963;28;20027;-74
2023/01/01 12:49:38;;;;;;;5.35;1.40;;;15.40;78.10;;;;;;5133285;28;20037;-74
2023/01/01 12:52:37;;;;;;;4.25;1.35;;;15.60;77.60;;;;;;5133763;28;20015;-74
2023/01/01 12:55:29;;;;;;;6.22;1.60;;;15.50;77.00;;;;;;5133892;28;20053;-74
2023/01/01 12:58:04;;;;;;;7.38;1.83;;;15.40;77.60;;;;;;5133996;28;20020;-74
2023/01/01 13:00:31;;;;;;;9.75;1.60;;;15.20;77.10;;;;;;5132919;28;20072;-74
2023/01/01 13:03:06;;;;;;;9.23;1.55;;;15.00;77.60;;;;;;5133845;28;20028;-74
2023/01/01 13:05:44;;;;;;;6.68;1.50;;;14.90;78.40;;;;;;5133903;28;20401;-74
2023/01/01 13:08:10;;;;;;;5.10;1.30;;;14.70;78.20;;;;;;5133723;28;20038;-75
2023/01/01 13:10:42;;;;;;;7.57;1.48;;;14.70;79.50;;;;;;5133784;28;20031;-74